createdAt,value
2018-02-13T00:00:45.053Z,81.40
2018-02-13T00:03:12.522Z,81.70
2018-02-13T00:05:39.968Z,81.70
2018-02-13T00:08:07.429Z,81.20
2018-02-13T00:10:34.877Z,81.30
2018-02-13T00:13:02.913Z,81.50
2018-02-13T00:15:30.360Z,81.90
2018-02-13T00:17:57.825Z,81.90
2018-02-13T00:20:25.289Z,81.60
2018-02-13T00:22:52.732Z,81.40
2018-02-13T00:25:20.209Z,81.80
2018-02-13T00:27:47.652Z,81.70
2018-02-13T00:30:15.101Z,81.80
2018-02-13T00:32:42.540Z,81.90
2018-02-13T00:35:10.003Z,81.70
2018-02-13T00:37:37.457Z,81.60
2018-02-13T00:40:04.913Z,81.80
2018-02-13T00:42:33.119Z,82.00
2018-02-13T00:45:00.576Z,82.10
2018-02-13T00:47:28.016Z,82.70
2018-02-13T00:49:56.246Z,82.60
2018-02-13T00:52:23.698Z,82.60
2018-02-13T00:54:51.154Z,82.30
2018-02-13T00:57:18.602Z,82.20
2018-02-13T00:59:46.054Z,82.10
2018-02-13T01:02:13.497Z,82.00
2018-02-13T01:04:41.716Z,82.20
2018-02-13T01:07:09.169Z,82.20
2018-02-13T01:09:36.683Z,82.30
2018-02-13T01:12:04.088Z,82.10
2018-02-13T01:14:31.542Z,82.00
2018-02-13T01:16:59.016Z,81.80
2018-02-13T01:19:26.443Z,81.60
2018-02-13T01:21:54.665Z,81.90
2018-02-13T01:24:22.120Z,81.90
2018-02-13T01:26:49.581Z,82.00
2018-02-13T01:29:17.034Z,82.20
2018-02-13T01:31:44.484Z,82.40
2018-02-13T01:34:12.737Z,82.50
2018-02-13T01:36:40.172Z,82.50
2018-02-13T01:39:07.619Z,82.40
2018-02-13T01:41:35.073Z,82.50
2018-02-13T01:44:02.525Z,82.60
2018-02-13T01:46:29.988Z,82.60
2018-02-13T01:48:57.432Z,82.60
2018-02-13T01:51:25.656Z,82.60
2018-02-13T01:53:53.116Z,82.60
2018-02-13T01:56:20.572Z,82.60
2018-02-13T01:58:48.023Z,82.50
2018-02-13T02:01:15.477Z,82.30
2018-02-13T02:03:42.921Z,82.20
2018-02-13T02:06:11.145Z,81.10
2018-02-13T02:08:38.591Z,81.10
2018-02-13T02:11:06.040Z,81.00
2018-02-13T02:13:33.491Z,80.90
2018-02-13T02:16:01.708Z,80.90
2018-02-13T02:18:29.161Z,80.90
2018-02-13T02:20:56.614Z,81.10
2018-02-13T02:23:24.052Z,81.50
2018-02-13T02:25:52.265Z,82.00
2018-02-13T02:28:19.718Z,82.00
2018-02-13T02:30:47.169Z,81.70
2018-02-13T02:33:15.404Z,81.80
2018-02-13T02:35:42.841Z,81.80
2018-02-13T02:38:10.301Z,81.80
2018-02-13T02:40:37.756Z,82.00
2018-02-13T02:43:05.986Z,82.10
2018-02-13T02:45:33.449Z,81.90
2018-02-13T02:48:01.000Z,82.10
2018-02-13T02:50:28.368Z,82.60
2018-02-13T02:52:55.833Z,81.50
2018-02-13T02:55:23.276Z,80.90
2018-02-13T02:57:50.728Z,81.00
2018-02-13T03:00:18.189Z,81.40
2018-02-13T03:02:45.640Z,81.50
2018-02-13T03:05:13.092Z,81.10
2018-02-13T03:07:40.551Z,81.00
2018-02-13T03:10:07.990Z,80.60
2018-02-13T03:12:35.457Z,80.60
2018-02-13T03:15:02.904Z,81.00
2018-02-13T03:17:30.371Z,81.30
2018-02-13T03:19:57.814Z,81.20
2018-02-13T03:22:26.018Z,81.30
2018-02-13T03:24:53.488Z,81.20
2018-02-13T03:27:20.944Z,81.20
2018-02-13T03:29:48.405Z,81.00
2018-02-13T03:32:15.864Z,81.20
2018-02-13T03:34:43.333Z,80.90
2018-02-13T03:37:10.792Z,81.00
2018-02-13T03:39:38.251Z,80.90
2018-02-13T03:42:05.702Z,81.10
2018-02-13T03:44:33.933Z,81.20
2018-02-13T03:47:01.397Z,81.20
2018-02-13T03:49:28.848Z,81.30
2018-02-13T03:51:56.295Z,81.20
2018-02-13T03:54:23.768Z,81.00
2018-02-13T03:56:51.212Z,81.20
2018-02-13T03:59:18.692Z,81.40
2018-02-13T04:01:46.158Z,81.40
2018-02-13T04:04:13.623Z,81.50
2018-02-13T04:06:41.065Z,81.50
2018-02-13T04:09:08.529Z,81.40
2018-02-13T04:11:35.981Z,81.30
2018-02-13T04:14:03.452Z,81.00
2018-02-13T04:16:30.910Z,80.70
2018-02-13T04:18:58.374Z,80.70
2018-02-13T04:21:25.837Z,80.50
2018-02-13T04:23:53.296Z,80.80
2018-02-13T04:26:20.869Z,80.80
2018-02-13T04:28:48.338Z,81.00
2018-02-13T04:31:15.786Z,80.80
2018-02-13T04:33:43.255Z,80.90
2018-02-13T04:36:10.718Z,80.90
2018-02-13T04:38:38.159Z,81.00
2018-02-13T04:41:05.620Z,81.30
2018-02-13T04:43:33.069Z,81.30
2018-02-13T04:46:01.294Z,81.50
2018-02-13T04:48:28.756Z,81.50
2018-02-13T04:50:56.306Z,81.80
2018-02-13T04:53:23.752Z,81.80
2018-02-13T04:55:51.216Z,82.00
2018-02-13T04:58:18.673Z,81.70
2018-02-13T05:00:46.897Z,82.00
2018-02-13T05:03:14.344Z,81.30
2018-02-13T05:05:41.817Z,82.00
2018-02-13T05:08:09.265Z,82.20
2018-02-13T05:10:36.721Z,82.20
2018-02-13T05:13:04.168Z,81.90
2018-02-13T05:15:31.640Z,81.90
2018-02-13T05:17:59.117Z,82.10
2018-02-13T05:20:26.577Z,82.30
2018-02-13T05:22:54.026Z,81.80
2018-02-13T05:25:21.477Z,81.50
2018-02-13T05:27:48.932Z,81.50
2018-02-13T05:30:17.172Z,81.60
2018-02-13T05:32:44.622Z,81.50
2018-02-13T05:35:12.082Z,81.50
2018-02-13T05:37:39.545Z,82.00
2018-02-13T05:40:07.014Z,82.20
2018-02-13T05:42:34.463Z,82.00
2018-02-13T05:45:01.961Z,82.00
2018-02-13T05:47:29.413Z,82.00
2018-02-13T05:49:56.856Z,81.90
2018-02-13T05:52:24.340Z,82.10
2018-02-13T05:54:51.801Z,82.20
2018-02-13T05:57:19.256Z,82.20
2018-02-13T05:59:46.735Z,82.10
2018-02-13T06:02:14.181Z,82.20
2018-02-13T06:04:41.637Z,82.20
2018-02-13T06:07:09.098Z,82.20
2018-02-13T06:09:36.550Z,82.20
2018-02-13T06:12:04.006Z,82.20
2018-02-13T06:14:31.456Z,82.30
2018-02-13T06:16:58.924Z,82.40
2018-02-13T06:19:26.390Z,82.50
2018-02-13T06:21:53.846Z,82.60
2018-02-13T06:24:21.296Z,82.60
2018-02-13T06:26:48.753Z,82.40
2018-02-13T06:29:16.206Z,82.40
2018-02-13T06:31:44.439Z,82.30
2018-02-13T06:34:11.889Z,82.30
2018-02-13T06:36:39.344Z,82.30
2018-02-13T06:39:06.802Z,82.20
2018-02-13T06:41:34.267Z,82.30
2018-02-13T06:44:01.736Z,82.20
2018-02-13T06:46:29.200Z,82.10
2018-02-13T06:48:56.746Z,82.10
2018-02-13T06:51:24.188Z,82.20
2018-02-13T06:53:52.413Z,82.10
2018-02-13T06:56:19.867Z,82.10
2018-02-13T06:58:47.330Z,81.90
2018-02-13T07:01:14.772Z,81.80
2018-02-13T07:03:42.240Z,81.70
2018-02-13T07:06:09.686Z,81.80
2018-02-13T07:08:37.908Z,81.70
2018-02-13T07:11:05.369Z,81.60
2018-02-13T07:13:32.829Z,81.60
2018-02-13T07:16:00.294Z,81.60
2018-02-13T07:18:27.758Z,81.60
2018-02-13T07:20:55.212Z,81.50
2018-02-13T07:23:22.689Z,81.50
2018-02-13T07:25:50.142Z,81.50
2018-02-13T07:28:17.601Z,81.60
2018-02-13T07:30:45.053Z,81.60
2018-02-13T07:33:12.500Z,81.50
2018-02-13T07:35:39.948Z,81.50
2018-02-13T07:38:07.405Z,81.40
2018-02-13T07:40:35.619Z,81.50
2018-02-13T07:43:03.081Z,81.50
2018-02-13T07:45:30.533Z,81.60
2018-02-13T07:47:58.031Z,81.80
2018-02-13T07:50:25.476Z,81.70
2018-02-13T07:52:52.922Z,81.90
2018-02-13T07:55:20.478Z,82.00
2018-02-13T07:57:47.929Z,82.10
2018-02-13T08:00:16.189Z,82.50
2018-02-13T08:02:44.413Z,82.50
2018-02-13T08:05:11.869Z,82.40
2018-02-13T08:07:39.331Z,82.40
2018-02-13T08:10:06.803Z,82.30
2018-02-13T08:12:34.240Z,82.10
2018-02-13T08:15:01.753Z,82.00
2018-02-13T08:17:29.916Z,81.70
2018-02-13T08:19:57.385Z,81.70
2018-02-13T08:22:25.617Z,82.50
2018-02-13T08:24:53.852Z,82.20
2018-02-13T08:27:21.301Z,82.20
2018-02-13T08:29:48.776Z,82.20
2018-02-13T08:32:16.239Z,82.10
2018-02-13T08:34:43.696Z,82.00
2018-02-13T08:37:11.146Z,81.90
2018-02-13T08:39:38.608Z,82.10
2018-02-13T08:42:06.057Z,82.10
2018-02-13T08:44:33.553Z,82.10
2018-02-13T08:47:01.000Z,82.10
2018-02-13T08:49:28.465Z,82.10
2018-02-13T08:51:55.917Z,82.50
2018-02-13T08:54:23.364Z,82.40
2018-02-13T08:56:50.830Z,82.40
2018-02-13T08:59:18.320Z,82.30
2018-02-13T09:01:45.764Z,81.60
2018-02-13T09:04:13.216Z,81.50
2018-02-13T09:06:40.675Z,81.90
2018-02-13T09:09:08.125Z,81.70
2018-02-13T09:11:35.576Z,80.90
2018-02-13T09:14:03.803Z,81.00
2018-02-13T09:16:31.267Z,80.80
2018-02-13T09:18:58.721Z,80.30
2018-02-13T09:21:26.212Z,80.20
2018-02-13T09:23:53.729Z,80.60
2018-02-13T09:26:21.936Z,80.70
2018-02-13T09:28:49.384Z,80.60
2018-02-13T09:31:16.845Z,80.50
2018-02-13T09:33:44.279Z,80.60
2018-02-13T09:36:11.742Z,80.50
2018-02-13T09:38:39.949Z,80.40
2018-02-13T09:41:07.404Z,80.40
2018-02-13T09:43:34.841Z,80.00
2018-02-13T09:46:03.071Z,80.00
2018-02-13T09:48:30.511Z,79.80
2018-02-13T09:50:57.968Z,79.80
2018-02-13T09:53:25.409Z,80.30
2018-02-13T09:55:53.632Z,79.50
2018-02-13T09:58:21.081Z,79.50
2018-02-13T10:00:48.537Z,79.00
2018-02-13T10:03:16.037Z,79.50
2018-02-13T10:05:43.460Z,78.90
2018-02-13T10:08:10.901Z,78.10
2018-02-13T10:10:39.129Z,78.40
2018-02-13T10:13:06.585Z,78.40
2018-02-13T10:15:34.020Z,78.30
2018-02-13T10:18:01.482Z,78.70
2018-02-13T10:20:28.924Z,78.00
2018-02-13T10:22:57.148Z,77.80
2018-02-13T10:25:24.631Z,77.80
2018-02-13T10:27:52.118Z,78.20
2018-02-13T10:30:19.568Z,78.10
2018-02-13T10:32:47.017Z,78.90
2018-02-13T10:35:14.460Z,77.90
2018-02-13T10:37:42.680Z,76.50
2018-02-13T10:40:10.137Z,76.50
2018-02-13T10:42:37.589Z,75.40
2018-02-13T10:45:05.041Z,74.10
2018-02-13T10:47:32.506Z,76.30
2018-02-13T10:49:59.952Z,76.10
2018-02-13T10:52:27.424Z,75.70
2018-02-13T10:54:54.884Z,73.50
2018-02-13T10:57:22.345Z,72.30
2018-02-13T10:59:49.795Z,73.20
2018-02-13T11:02:22.256Z,73.20
2018-02-13T11:04:49.829Z,72.20
2018-02-13T11:07:17.281Z,71.10
2018-02-13T11:09:44.729Z,71.60
2018-02-13T11:12:12.190Z,72.80
2018-02-13T11:14:40.408Z,69.10
2018-02-13T11:17:07.865Z,69.00
2018-02-13T11:19:35.320Z,70.40
2018-02-13T11:22:02.782Z,70.00
2018-02-13T11:24:30.232Z,72.90
2018-02-13T11:26:57.683Z,71.00
2018-02-13T11:29:25.140Z,72.60
2018-02-13T11:31:53.353Z,71.20
2018-02-13T11:34:20.902Z,71.20
2018-02-13T11:36:48.344Z,69.60
2018-02-13T11:39:16.563Z,62.10
2018-02-13T11:41:44.012Z,62.10
2018-02-13T11:44:11.458Z,65.70
2018-02-13T11:46:38.904Z,65.40
2018-02-13T11:49:07.124Z,67.00
2018-02-13T11:51:34.572Z,66.90
2018-02-13T11:54:02.033Z,66.70
2018-02-13T11:56:29.472Z,66.30
2018-02-13T11:58:57.694Z,66.90
2018-02-13T12:01:25.152Z,66.90
2018-02-13T12:03:52.600Z,62.80
2018-02-13T12:06:20.062Z,64.60
2018-02-13T12:08:47.506Z,66.10
2018-02-13T12:11:15.716Z,61.90
2018-02-13T12:13:43.168Z,61.90
2018-02-13T12:16:10.627Z,65.70
2018-02-13T12:18:38.066Z,63.30
2018-02-13T12:21:06.285Z,59.00
2018-02-13T12:23:33.763Z,59.00
2018-02-13T12:26:01.200Z,58.80
2018-02-13T12:28:28.644Z,57.70
2018-02-13T12:30:56.099Z,59.80
2018-02-13T12:33:24.312Z,61.60
2018-02-13T12:35:51.789Z,61.70
2018-02-13T12:38:19.244Z,60.60
2018-02-13T12:40:46.715Z,62.30
2018-02-13T12:43:14.175Z,61.10
2018-02-13T12:45:41.631Z,61.60
2018-02-13T12:48:09.082Z,60.80
2018-02-13T12:50:36.523Z,61.60
2018-02-13T12:53:03.976Z,60.50
2018-02-13T12:55:32.204Z,58.80
2018-02-13T12:57:59.650Z,58.70
2018-02-13T13:00:27.100Z,61.50
2018-02-13T13:02:54.573Z,59.30
2018-02-13T13:05:22.022Z,61.60
2018-02-13T13:07:49.541Z,60.20
2018-02-13T13:10:16.950Z,59.00
2018-02-13T13:12:44.402Z,59.80
2018-02-13T13:15:11.853Z,60.20
2018-02-13T13:17:40.087Z,59.00
2018-02-13T13:20:07.557Z,59.00
2018-02-13T13:22:35.000Z,58.20
2018-02-13T13:25:02.468Z,60.90
2018-02-13T13:27:29.932Z,58.60
2018-02-13T13:29:57.418Z,57.00
2018-02-13T13:32:24.868Z,59.20
2018-02-13T13:34:52.333Z,59.50
2018-02-13T13:37:19.801Z,58.80
2018-02-13T13:39:47.262Z,58.00
2018-02-13T13:42:14.712Z,56.20
2018-02-13T13:44:42.172Z,57.70
2018-02-13T13:47:09.628Z,58.60
2018-02-13T13:49:37.085Z,57.20
2018-02-13T13:52:04.541Z,58.40
2018-02-13T13:54:32.177Z,55.80
2018-02-13T13:56:59.645Z,55.60
2018-02-13T13:59:27.096Z,56.80
2018-02-13T14:01:55.324Z,54.70
2018-02-13T14:04:22.860Z,54.70
2018-02-13T14:06:50.300Z,57.80
2018-02-13T14:09:18.526Z,54.80
2018-02-13T14:11:45.988Z,54.80
2018-02-13T14:14:13.453Z,54.40
2018-02-13T14:16:40.900Z,53.60
2018-02-13T14:19:08.356Z,53.70
2018-02-13T14:21:35.816Z,55.10
2018-02-13T14:24:03.265Z,55.50
2018-02-13T14:26:30.727Z,55.00
2018-02-13T14:28:58.207Z,53.60
2018-02-13T14:31:25.673Z,55.20
2018-02-13T14:33:53.127Z,55.50
2018-02-13T14:36:20.580Z,53.90
2018-02-13T14:38:48.024Z,53.20
2018-02-13T14:41:16.245Z,53.10
2018-02-13T14:43:43.697Z,53.20
2018-02-13T14:46:11.152Z,55.70
2018-02-13T14:48:38.616Z,53.80
2018-02-13T14:51:06.068Z,55.40
2018-02-13T14:53:33.535Z,54.30
2018-02-13T14:56:00.987Z,52.80
2018-02-13T14:58:28.443Z,54.80
2018-02-13T15:00:56.661Z,54.40
2018-02-13T15:03:24.113Z,54.40
2018-02-13T15:05:51.568Z,51.10
2018-02-13T15:08:19.040Z,53.90
2018-02-13T15:10:46.493Z,53.70
2018-02-13T15:13:13.956Z,54.90
2018-02-13T15:15:41.409Z,55.00
2018-02-13T15:21:08.997Z,52.70
2018-02-13T15:23:36.454Z,54.40
2018-02-13T15:26:03.900Z,55.30
2018-02-13T15:28:31.376Z,55.80
2018-02-13T15:30:58.836Z,52.40
2018-02-13T15:33:26.284Z,55.90
2018-02-13T15:35:53.753Z,55.30
2018-02-13T15:38:21.225Z,53.50
2018-02-13T15:40:48.669Z,54.00
2018-02-13T15:43:16.892Z,54.20
2018-02-13T15:45:44.359Z,54.20
2018-02-13T15:48:12.573Z,55.50
2018-02-13T15:53:30.904Z,55.40
2018-02-13T15:55:58.352Z,54.70
2018-02-13T15:58:25.818Z,55.10
2018-02-13T16:00:53.283Z,54.20
2018-02-13T16:03:20.740Z,54.60
2018-02-13T16:05:48.196Z,54.30
2018-02-13T16:08:15.643Z,55.30
2018-02-13T16:10:43.118Z,53.70
2018-02-13T16:13:10.575Z,55.10
2018-02-13T16:15:38.033Z,54.70
2018-02-13T16:18:05.490Z,53.50
2018-02-13T16:20:33.012Z,56.10
2018-02-13T16:23:00.459Z,55.00
2018-02-13T16:25:27.927Z,54.80
2018-02-13T16:27:55.370Z,55.70
2018-02-13T16:30:22.834Z,56.50
2018-02-13T16:32:50.278Z,57.60
2018-02-13T16:35:18.011Z,56.90
2018-02-13T16:37:45.448Z,58.10
2018-02-13T16:40:12.908Z,57.80
2018-02-13T16:42:40.357Z,58.00
2018-02-13T16:45:07.809Z,58.50
2018-02-13T16:47:35.267Z,57.80
2018-02-13T16:50:02.736Z,58.60
2018-02-13T16:52:30.187Z,59.30
2018-02-13T16:54:57.644Z,59.00
2018-02-13T16:57:25.092Z,59.70
2018-02-13T16:59:52.604Z,59.50
2018-02-13T17:02:20.056Z,59.60
2018-02-13T17:04:47.504Z,60.60
2018-02-13T17:07:14.999Z,60.90
2018-02-13T17:09:42.429Z,60.60
2018-02-13T17:12:09.887Z,61.60
2018-02-13T17:14:37.328Z,61.00
2018-02-13T17:17:04.790Z,61.20
2018-02-13T17:19:32.257Z,61.50
2018-02-13T17:21:59.717Z,61.60
2018-02-13T17:24:27.176Z,61.50
2018-02-13T17:26:54.646Z,62.10
2018-02-13T17:29:22.090Z,62.60
2018-02-13T17:31:49.544Z,62.30
2018-02-13T17:34:17.763Z,62.60
2018-02-13T17:36:45.216Z,62.60
2018-02-13T17:39:12.672Z,61.40
2018-02-13T17:41:40.134Z,61.80
2018-02-13T17:44:07.588Z,62.00
2018-02-13T17:46:35.041Z,62.20
2018-02-13T17:49:03.254Z,62.50
2018-02-13T17:51:30.721Z,62.50
2018-02-13T17:53:58.182Z,61.70
2018-02-13T17:56:25.633Z,62.50
2018-02-13T17:58:53.070Z,62.30
2018-02-13T18:01:21.316Z,61.60
2018-02-13T18:03:48.764Z,61.50
2018-02-13T18:06:16.225Z,62.00
2018-02-13T18:08:43.688Z,62.80
2018-02-13T18:11:11.136Z,61.90
2018-02-13T18:13:38.600Z,61.90
2018-02-13T18:16:06.057Z,62.60
2018-02-13T18:18:33.513Z,62.30
2018-02-13T18:21:00.996Z,62.10
2018-02-13T18:23:29.233Z,63.70
2018-02-13T18:25:56.677Z,63.70
2018-02-13T18:28:24.902Z,63.40
2018-02-13T18:30:52.377Z,63.20
2018-02-13T18:33:19.828Z,64.70
2018-02-13T18:35:47.272Z,64.40
2018-02-13T18:38:14.734Z,64.00
2018-02-13T18:40:42.175Z,63.20
2018-02-13T18:43:10.405Z,65.90
2018-02-13T18:45:37.872Z,65.90
2018-02-13T18:48:06.099Z,65.90
2018-02-13T18:50:34.339Z,66.20
2018-02-13T18:55:29.244Z,66.60
2018-02-13T18:57:56.708Z,65.00
2018-02-13T19:00:24.247Z,65.60
2018-02-13T19:02:52.456Z,66.10
2018-02-13T19:05:19.915Z,66.10
2018-02-13T19:07:47.388Z,66.00
2018-02-13T19:10:14.868Z,65.70
2018-02-13T19:12:42.336Z,65.40
2018-02-13T19:15:09.792Z,65.20
2018-02-13T19:17:37.252Z,63.90
2018-02-13T19:20:04.703Z,64.20
2018-02-13T19:22:32.169Z,64.80
2018-02-13T19:24:59.616Z,64.90
2018-02-13T19:27:27.110Z,65.50
2018-02-13T19:29:54.574Z,65.30
2018-02-13T19:32:22.035Z,66.10
2018-02-13T19:34:49.547Z,66.30
2018-02-13T19:37:16.958Z,66.30
2018-02-13T19:39:44.429Z,66.90
2018-02-13T19:42:11.877Z,67.10
2018-02-13T19:44:39.339Z,67.00
2018-02-13T19:47:06.788Z,67.10
2018-02-13T19:49:34.246Z,67.90
2018-02-13T19:52:01.693Z,67.60
2018-02-13T19:54:29.152Z,67.60
2018-02-13T19:56:56.618Z,67.30
2018-02-13T19:59:24.112Z,67.10
2018-02-13T20:01:51.568Z,67.10
2018-02-13T20:04:19.032Z,66.90
2018-02-13T20:06:46.504Z,66.80
2018-02-13T20:09:13.959Z,67.80
2018-02-13T20:11:41.417Z,67.80
2018-02-13T20:14:08.873Z,67.60
2018-02-13T20:16:36.313Z,67.20
2018-02-13T20:19:03.792Z,67.80
2018-02-13T20:21:31.252Z,68.20
2018-02-13T20:23:58.692Z,67.90
2018-02-13T20:26:26.152Z,68.60
2018-02-13T20:28:53.600Z,69.40
2018-02-13T20:31:21.067Z,68.70
2018-02-13T20:33:48.520Z,69.50
2018-02-13T20:36:16.752Z,68.90
2018-02-13T20:38:44.200Z,68.90
2018-02-13T20:41:11.694Z,69.50
2018-02-13T20:43:39.148Z,69.00
2018-02-13T20:46:06.592Z,70.40
2018-02-13T20:48:34.053Z,70.10
2018-02-13T20:51:01.511Z,70.60
2018-02-13T20:53:28.969Z,70.60
2018-02-13T20:55:56.428Z,70.40
2018-02-13T20:58:23.881Z,69.90
2018-02-13T21:00:51.344Z,68.90
2018-02-13T21:03:18.794Z,69.40
2018-02-13T21:05:46.257Z,70.20
2018-02-13T21:08:13.702Z,70.40
2018-02-13T21:10:41.937Z,69.10
2018-02-13T21:13:09.392Z,69.00
2018-02-13T21:15:37.621Z,67.80
2018-02-13T21:18:05.854Z,68.60
2018-02-13T21:20:33.315Z,68.60
2018-02-13T21:23:00.780Z,68.00
2018-02-13T21:25:28.236Z,69.10
2018-02-13T21:27:55.700Z,67.80
2018-02-13T21:30:23.164Z,68.60
2018-02-13T21:32:50.632Z,67.70
2018-02-13T21:35:18.089Z,68.40
2018-02-13T21:37:45.544Z,67.20
2018-02-13T21:40:12.996Z,67.40
2018-02-13T21:42:40.460Z,65.60
2018-02-13T21:45:07.924Z,66.80
2018-02-13T21:47:35.380Z,67.00
2018-02-13T21:50:03.145Z,67.30
2018-02-13T21:52:30.592Z,67.60
2018-02-13T21:54:58.047Z,67.60
2018-02-13T21:57:26.265Z,68.60
2018-02-13T21:59:53.726Z,68.60
2018-02-13T22:02:21.183Z,67.00
2018-02-13T22:04:48.637Z,68.60
2018-02-13T22:07:16.116Z,67.60
2018-02-13T22:09:43.583Z,68.60
2018-02-13T22:12:11.050Z,69.30
2018-02-13T22:14:38.508Z,68.40
2018-02-13T22:17:05.965Z,69.10
2018-02-13T22:19:33.427Z,69.40
2018-02-13T22:22:00.892Z,68.60
2018-02-13T22:24:28.359Z,69.00
2018-02-13T22:26:55.837Z,70.30
2018-02-13T22:29:23.308Z,70.50
2018-02-13T22:31:50.766Z,69.70
2018-02-13T22:34:18.233Z,69.70
2018-02-13T22:36:45.696Z,69.50
2018-02-13T22:39:13.161Z,70.20
2018-02-13T22:41:40.627Z,68.40
2018-02-13T22:44:08.085Z,69.70
2018-02-13T22:46:35.537Z,69.70
2018-02-13T22:49:03.000Z,69.10
2018-02-13T22:51:30.461Z,69.90
2018-02-13T22:53:57.920Z,69.90
2018-02-13T22:56:25.370Z,70.50
2018-02-13T22:58:52.837Z,70.60
2018-02-13T23:01:20.282Z,70.60
2018-02-13T23:03:47.746Z,69.60
2018-02-13T23:06:15.957Z,70.20
2018-02-13T23:08:43.412Z,70.20
2018-02-13T23:11:10.873Z,70.10
2018-02-13T23:13:38.332Z,69.80
2018-02-13T23:16:05.788Z,68.60
2018-02-13T23:18:33.249Z,69.00
2018-02-13T23:21:00.704Z,70.10
2018-02-13T23:23:28.172Z,70.80
2018-02-13T23:25:55.632Z,70.50
2018-02-13T23:28:23.088Z,71.20
2018-02-13T23:30:50.535Z,71.30
2018-02-13T23:33:18.756Z,70.80
2018-02-13T23:35:46.257Z,70.80
2018-02-13T23:38:13.686Z,71.40
2018-02-13T23:40:41.149Z,72.10
2018-02-13T23:43:08.618Z,71.40
2018-02-13T23:45:36.089Z,71.30
2018-02-13T23:48:03.536Z,71.70
2018-02-13T23:50:31.011Z,72.20
2018-02-13T23:52:58.466Z,72.60
2018-02-13T23:55:25.933Z,72.10
2018-02-13T23:57:53.384Z,71.00
